sensor_id;sensor_type;location;lat;lon;timestamp;pressure;altitude;pressure_sealevel;temperature;humidity
39455;BME280;25155;41.890;23.446;2022-12-29T00:01:34;92759.28;;;0.94;67.41
39455;BME280;25155;41.890;23.446;2022-12-29T00:04:02;92755.53;;;0.90;67.29
39455;BME280;25155;41.890;23.446;2022-12-29T00:06:31;92762.50;;;0.96;67.80
39455;BME280;25155;41.890;23.446;2022-12-29T00:08:58;92771.59;;;0.98;67.40
39455;BME280;25155;41.890;23.446;2022-12-29T00:11:27;92776.19;;;0.96;67.43
39455;BME280;25155;41.890;23.446;2022-12-29T00:13:54;92776.75;;;0.98;67.73
39455;BME280;25155;41.890;23.446;2022-12-29T00:16:41;92771.03;;;0.90;69.17
39455;BME280;25155;41.890;23.446;2022-12-29T00:19:12;92779.75;;;0.88;69.10
39455;BME280;25155;41.890;23.446;2022-12-29T00:21:54;92775.81;;;0.86;69.62
39455;BME280;25155;41.890;23.446;2022-12-29T00:24:39;92769.44;;;0.88;69.17
39455;BME280;25155;41.890;23.446;2022-12-29T00:27:24;92766.84;;;0.88;68.96
39455;BME280;25155;41.890;23.446;2022-12-29T00:30:10;92767.03;;;0.94;68.73
39455;BME280;25155;41.890;23.446;2022-12-29T00:32:55;92769.84;;;0.85;69.64
39455;BME280;25155;41.890;23.446;2022-12-29T00:35:57;92768.88;;;0.73;69.54
39455;BME280;25155;41.890;23.446;2022-12-29T00:38:29;92777.41;;;0.67;69.35
39455;BME280;25155;41.890;23.446;2022-12-29T00:41:15;92782.56;;;0.67;69.36
39455;BME280;25155;41.890;23.446;2022-12-29T00:44:00;92781.38;;;0.69;69.22
39455;BME280;25155;41.890;23.446;2022-12-29T00:46:36;92788.91;;;0.71;68.75
39455;BME280;25155;41.890;23.446;2022-12-29T00:49:04;92797.25;;;0.73;68.70
39455;BME280;25155;41.890;23.446;2022-12-29T00:51:49;92782.34;;;0.68;68.68
39455;BME280;25155;41.890;23.446;2022-12-29T00:54:18;92781.78;;;0.66;68.27
39455;BME280;25155;41.890;23.446;2022-12-29T00:56:46;92783.75;;;0.64;68.56
39455;BME280;25155;41.890;23.446;2022-12-29T00:59:14;92788.72;;;0.66;68.25
39455;BME280;25155;41.890;23.446;2022-12-29T01:01:42;92783.38;;;0.67;68.13
39455;BME280;25155;41.890;23.446;2022-12-29T01:04:10;92783.16;;;0.69;68.24
39455;BME280;25155;41.890;23.446;2022-12-29T01:06:39;92784.53;;;0.72;68.53
39455;BME280;25155;41.890;23.446;2022-12-29T01:09:07;92770.03;;;0.70;68.13
39455;BME280;25155;41.890;23.446;2022-12-29T01:11:54;92766.50;;;0.65;68.45
39455;BME280;25155;41.890;23.446;2022-12-29T01:14:22;92761.91;;;0.67;68.32
39455;BME280;25155;41.890;23.446;2022-12-29T01:16:50;92766.69;;;0.70;68.54
39455;BME280;25155;41.890;23.446;2022-12-29T01:19:18;92752.19;;;0.62;68.48
39455;BME280;25155;41.890;23.446;2022-12-29T01:21:46;92759.34;;;0.60;68.98
39455;BME280;25155;41.890;23.446;2022-12-29T01:24:13;92757.34;;;0.56;68.67
39455;BME280;25155;41.890;23.446;2022-12-29T01:26:41;92749.03;;;0.54;68.67
39455;BME280;25155;41.890;23.446;2022-12-29T01:29:10;92749.81;;;0.54;68.68
39455;BME280;25155;41.890;23.446;2022-12-29T01:31:37;92744.44;;;0.56;68.49
39455;BME280;25155;41.890;23.446;2022-12-29T01:34:05;92747.66;;;0.58;68.38
39455;BME280;25155;41.890;23.446;2022-12-29T01:36:32;92745.06;;;0.58;67.99
39455;BME280;25155;41.890;23.446;2022-12-29T01:39:00;92737.13;;;0.59;68.41
39455;BME280;25155;41.890;23.446;2022-12-29T01:41:27;92729.41;;;0.53;68.16
39455;BME280;25155;41.890;23.446;2022-12-29T01:43:56;92729.38;;;0.46;68.64
39455;BME280;25155;41.890;23.446;2022-12-29T01:46:29;92735.56;;;0.25;70.16
39455;BME280;25155;41.890;23.446;2022-12-29T01:49:02;92736.53;;;0.17;69.78
39455;BME280;25155;41.890;23.446;2022-12-29T01:51:35;92743.28;;;0.18;69.15
39455;BME280;25155;41.890;23.446;2022-12-29T01:54:07;92732.97;;;0.11;68.88
39455;BME280;25155;41.890;23.446;2022-12-29T01:56:36;92729.38;;;0.12;68.92
39455;BME280;25155;41.890;23.446;2022-12-29T01:59:08;92729.78;;;0.16;68.81
39455;BME280;25155;41.890;23.446;2022-12-29T02:01:39;92727.00;;;0.18;68.97
39455;BME280;25155;41.890;23.446;2022-12-29T02:04:06;92731.75;;;0.21;68.38
39455;BME280;25155;41.890;23.446;2022-12-29T02:06:39;92734.53;;;0.19;67.99
39455;BME280;25155;41.890;23.446;2022-12-29T02:09:09;92720.88;;;0.19;68.13
39455;BME280;25155;41.890;23.446;2022-12-29T02:11:36;92722.47;;;0.06;68.91
39455;BME280;25155;41.890;23.446;2022-12-29T02:14:08;92723.41;;;-0.21;70.12
39455;BME280;25155;41.890;23.446;2022-12-29T02:16:51;92712.69;;;-0.32;70.33
39455;BME280;25155;41.890;23.446;2022-12-29T02:22:46;92711.69;;;-0.24;70.22
39455;BME280;25155;41.890;23.446;2022-12-29T02:28:52;92708.72;;;-0.21;69.50
39455;BME280;25155;41.890;23.446;2022-12-29T02:31:26;92676.19;;;-0.35;69.69
39455;BME280;25155;41.890;23.446;2022-12-29T02:34:06;92710.72;;;-0.23;69.91
39455;BME280;25155;41.890;23.446;2022-12-29T02:36:42;92715.47;;;-0.33;70.47
39455;BME280;25155;41.890;23.446;2022-12-29T02:39:15;92699.38;;;-0.42;69.81
39455;BME280;25155;41.890;23.446;2022-12-29T02:41:56;92702.19;;;-0.37;69.95
39455;BME280;25155;41.890;23.446;2022-12-29T02:44:29;92713.06;;;-0.35;69.55
39455;BME280;25155;41.890;23.446;2022-12-29T02:47:09;92709.50;;;-0.34;69.09
39455;BME280;25155;41.890;23.446;2022-12-29T02:49:49;92710.13;;;-0.32;69.23
39455;BME280;25155;41.890;23.446;2022-12-29T02:52:20;92706.25;;;-0.63;69.57
39455;BME280;25155;41.890;23.446;2022-12-29T02:54:52;92707.09;;;-0.42;68.95
39455;BME280;25155;41.890;23.446;2022-12-29T02:57:30;92712.06;;;-0.41;69.00
39455;BME280;25155;41.890;23.446;2022-12-29T03:00:01;92705.53;;;-0.36;68.77
39455;BME280;25155;41.890;23.446;2022-12-29T03:02:51;92704.13;;;-0.39;68.78
39455;BME280;25155;41.890;23.446;2022-12-29T03:05:32;92703.94;;;-0.37;68.32
39455;BME280;25155;41.890;23.446;2022-12-29T03:08:14;92706.50;;;-0.44;68.69
39455;BME280;25155;41.890;23.446;2022-12-29T03:10:51;92710.69;;;-0.43;68.37
39455;BME280;25155;41.890;23.446;2022-12-29T03:13:25;92704.31;;;-0.47;68.47
39455;BME280;25155;41.890;23.446;2022-12-29T03:16:20;92703.53;;;-0.48;68.38
39455;BME280;25155;41.890;23.446;2022-12-29T03:18:56;92704.69;;;-0.50;68.70
39455;BME280;25155;41.890;23.446;2022-12-29T03:21:31;92713.25;;;-0.50;68.27
39455;BME280;25155;41.890;23.446;2022-12-29T03:24:16;92709.38;;;-0.81;68.89
39455;BME280;25155;41.890;23.446;2022-12-29T03:26:45;92722.69;;;-0.64;68.88
39455;BME280;25155;41.890;23.446;2022-12-29T03:29:15;92709.03;;;-0.57;68.68
39455;BME280;25155;41.890;23.446;2022-12-29T03:31:44;92712.81;;;-0.60;68.64
39455;BME280;25155;41.890;23.446;2022-12-29T03:34:15;92710.44;;;-0.62;68.27
39455;BME280;25155;41.890;23.446;2022-12-29T03:36:48;92712.38;;;-0.64;67.83
39455;BME280;25155;41.890;23.446;2022-12-29T03:39:18;92709.63;;;-0.62;67.90
39455;BME280;25155;41.890;23.446;2022-12-29T03:41:49;92716.56;;;-0.63;67.58
39455;BME280;25155;41.890;23.446;2022-12-29T03:44:18;92732.00;;;-0.63;67.65
39455;BME280;25155;41.890;23.446;2022-12-29T03:46:45;92734.38;;;-0.61;67.81
39455;BME280;25155;41.890;23.446;2022-12-29T03:49:14;92731.81;;;-0.61;67.64
39455;BME280;25155;41.890;23.446;2022-12-29T03:51:41;92727.44;;;-0.61;67.34
39455;BME280;25155;41.890;23.446;2022-12-29T03:54:09;92719.72;;;-0.61;67.78
39455;BME280;25155;41.890;23.446;2022-12-29T03:56:36;92722.50;;;-0.62;67.61
39455;BME280;25155;41.890;23.446;2022-12-29T03:59:03;92728.66;;;-0.63;67.18
39455;BME280;25155;41.890;23.446;2022-12-29T04:01:30;92722.47;;;-0.69;67.31
39455;BME280;25155;41.890;23.446;2022-12-29T04:03:58;92718.13;;;-0.68;67.44
39455;BME280;25155;41.890;23.446;2022-12-29T04:06:26;92721.06;;;-0.78;67.52
39455;BME280;25155;41.890;23.446;2022-12-29T04:08:53;92723.63;;;-0.85;67.35
39455;BME280;25155;41.890;23.446;2022-12-29T04:11:22;92726.13;;;-0.98;67.75
39455;BME280;25155;41.890;23.446;2022-12-29T04:13:49;92724.31;;;-1.04;67.80
39455;BME280;25155;41.890;23.446;2022-12-29T04:16:16;92731.03;;;-1.03;68.30
39455;BME280;25155;41.890;23.446;2022-12-29T04:18:44;92731.44;;;-1.06;67.98
39455;BME280;25155;41.890;23.446;2022-12-29T04:21:11;92729.44;;;-1.11;68.14
39455;BME280;25155;41.890;23.446;2022-12-29T04:23:40;92735.53;;;-1.12;67.89
39455;BME280;25155;41.890;23.446;2022-12-29T04:26:07;92732.00;;;-1.11;68.07
39455;BME280;25155;41.890;23.446;2022-12-29T04:28:36;92740.09;;;-1.14;67.77
39455;BME280;25155;41.890;23.446;2022-12-29T04:31:04;92738.50;;;-1.15;67.85
39455;BME280;25155;41.890;23.446;2022-12-29T04:33:31;92738.66;;;-1.23;67.85
39455;BME280;25155;41.890;23.446;2022-12-29T04:35:58;92739.59;;;-1.31;68.25
39455;BME280;25155;41.890;23.446;2022-12-29T04:38:25;92744.72;;;-1.38;68.38
39455;BME280;25155;41.890;23.446;2022-12-29T04:40:54;92741.50;;;-1.40;68.20
39455;BME280;25155;41.890;23.446;2022-12-29T04:43:21;92745.25;;;-1.42;68.21
39455;BME280;25155;41.890;23.446;2022-12-29T04:45:49;92751.78;;;-1.40;68.39
39455;BME280;25155;41.890;23.446;2022-12-29T04:48:16;92754.75;;;-1.43;68.81
39455;BME280;25155;41.890;23.446;2022-12-29T04:50:43;92750.41;;;-1.42;68.80
39455;BME280;25155;41.890;23.446;2022-12-29T04:53:11;92763.44;;;-1.44;68.73
39455;BME280;25155;41.890;23.446;2022-12-29T04:55:38;92759.03;;;-1.50;68.45
39455;BME280;25155;41.890;23.446;2022-12-29T04:58:07;92768.13;;;-1.54;68.68
39455;BME280;25155;41.890;23.446;2022-12-29T05:00:34;92771.63;;;-1.62;68.48
39455;BME280;25155;41.890;23.446;2022-12-29T05:03:01;92767.78;;;-1.73;69.27
39455;BME280;25155;41.890;23.446;2022-12-29T05:05:28;92773.91;;;-1.74;69.27
39455;BME280;25155;41.890;23.446;2022-12-29T05:07:56;92765.81;;;-1.71;69.38
39455;BME280;25155;41.890;23.446;2022-12-29T05:10:23;92765.06;;;-1.64;69.33
39455;BME280;25155;41.890;23.446;2022-12-29T05:12:51;92765.50;;;-1.61;69.34
39455;BME280;25155;41.890;23.446;2022-12-29T05:15:20;92757.34;;;-1.64;68.88
39455;BME280;25155;41.890;23.446;2022-12-29T05:17:47;92769.09;;;-1.55;68.87
39455;BME280;25155;41.890;23.446;2022-12-29T05:20:14;92766.16;;;-1.52;68.61
39455;BME280;25155;41.890;23.446;2022-12-29T05:22:42;92766.75;;;-1.50;69.05
39455;BME280;25155;41.890;23.446;2022-12-29T05:25:09;92767.53;;;-1.49;68.63
39455;BME280;25155;41.890;23.446;2022-12-29T05:27:37;92763.81;;;-1.47;68.54
39455;BME280;25155;41.890;23.446;2022-12-29T05:30:05;92763.81;;;-1.47;68.29
39455;BME280;25155;41.890;23.446;2022-12-29T05:32:34;92764.00;;;-1.48;68.52
39455;BME280;25155;41.890;23.446;2022-12-29T05:35:01;92764.38;;;-1.52;67.93
39455;BME280;25155;41.890;23.446;2022-12-29T05:37:28;92759.41;;;-1.53;68.01
39455;BME280;25155;41.890;23.446;2022-12-29T05:39:56;92764.56;;;-1.53;68.27
39455;BME280;25155;41.890;23.446;2022-12-29T05:42:24;92774.06;;;-1.54;68.46
39455;BME280;25155;41.890;23.446;2022-12-29T05:44:52;92766.28;;;-1.60;68.16
39455;BME280;25155;41.890;23.446;2022-12-29T05:47:19;92760.31;;;-1.67;68.56
39455;BME280;25155;41.890;23.446;2022-12-29T05:49:48;92757.75;;;-1.67;68.01
39455;BME280;25155;41.890;23.446;2022-12-29T05:52:15;92764.81;;;-1.69;68.49
39455;BME280;25155;41.890;23.446;2022-12-29T05:54:42;92762.88;;;-1.67;68.33
39455;BME280;25155;41.890;23.446;2022-12-29T05:57:09;92763.50;;;-1.65;68.27
39455;BME280;25155;41.890;23.446;2022-12-29T05:59:37;92762.25;;;-1.69;68.21
39455;BME280;25155;41.890;23.446;2022-12-29T06:02:04;92761.41;;;-1.77;67.93
39455;BME280;25155;41.890;23.446;2022-12-29T06:04:31;92766.91;;;-1.80;68.43
39455;BME280;25155;41.890;23.446;2022-12-29T06:07:00;92775.19;;;-1.84;68.44
39455;BME280;25155;41.890;23.446;2022-12-29T06:09:27;92787.84;;;-1.83;68.93
39455;BME280;25155;41.890;23.446;2022-12-29T06:11:54;92776.34;;;-1.87;69.26
39455;BME280;25155;41.890;23.446;2022-12-29T06:14:22;92785.84;;;-1.87;70.02
39455;BME280;25155;41.890;23.446;2022-12-29T06:16:49;92793.91;;;-1.91;69.86
39455;BME280;25155;41.890;23.446;2022-12-29T06:19:16;92793.03;;;-2.19;71.57
39455;BME280;25155;41.890;23.446;2022-12-29T06:21:44;92803.09;;;-2.39;72.70
39455;BME280;25155;41.890;23.446;2022-12-29T06:24:12;92802.66;;;-2.43;72.45
39455;BME280;25155;41.890;23.446;2022-12-29T06:26:40;92805.41;;;-2.45;73.57
39455;BME280;25155;41.890;23.446;2022-12-29T06:29:08;92809.03;;;-2.54;74.14
39455;BME280;25155;41.890;23.446;2022-12-29T06:31:35;92800.97;;;-2.51;74.15
39455;BME280;25155;41.890;23.446;2022-12-29T06:34:03;92804.63;;;-2.45;74.00
39455;BME280;25155;41.890;23.446;2022-12-29T06:36:30;92806.09;;;-2.36;74.21
39455;BME280;25155;41.890;23.446;2022-12-29T06:38:57;92805.19;;;-2.28;73.95
39455;BME280;25155;41.890;23.446;2022-12-29T06:41:26;92802.09;;;-2.23;73.19
39455;BME280;25155;41.890;23.446;2022-12-29T06:43:53;92799.41;;;-2.15;73.38
39455;BME280;25155;41.890;23.446;2022-12-29T06:46:21;92803.00;;;-2.10;73.37
39455;BME280;25155;41.890;23.446;2022-12-29T06:48:48;92805.22;;;-2.06;73.50
39455;BME280;25155;41.890;23.446;2022-12-29T06:51:15;92809.94;;;-2.10;74.02
39455;BME280;25155;41.890;23.446;2022-12-29T06:53:42;92806.19;;;-2.08;73.95
39455;BME280;25155;41.890;23.446;2022-12-29T06:56:10;92815.38;;;-1.98;74.07
39455;BME280;25155;41.890;23.446;2022-12-29T06:58:39;92815.63;;;-1.93;73.65
39455;BME280;25155;41.890;23.446;2022-12-29T07:01:06;92819.03;;;-1.86;73.82
39455;BME280;25155;41.890;23.446;2022-12-29T07:03:33;92819.91;;;-1.79;73.56
39455;BME280;25155;41.890;23.446;2022-12-29T07:06:00;92820.16;;;-1.74;73.50
39455;BME280;25155;41.890;23.446;2022-12-29T07:08:28;92816.00;;;-1.75;73.11
39455;BME280;25155;41.890;23.446;2022-12-29T07:10:55;92821.25;;;-1.61;73.13
39455;BME280;25155;41.890;23.446;2022-12-29T07:13:22;92825.66;;;-1.55;73.08
39455;BME280;25155;41.890;23.446;2022-12-29T07:15:51;92821.75;;;-1.51;72.69
39455;BME280;25155;41.890;23.446;2022-12-29T07:18:18;92819.41;;;-1.46;72.77
39455;BME280;25155;41.890;23.446;2022-12-29T07:20:46;92819.41;;;-1.46;73.22
39455;BME280;25155;41.890;23.446;2022-12-29T07:23:13;92829.50;;;-1.44;73.20
39455;BME280;25155;41.890;23.446;2022-12-29T07:25:40;92828.34;;;-1.42;73.00
39455;BME280;25155;41.890;23.446;2022-12-29T07:28:08;92827.72;;;-1.44;72.98
39455;BME280;25155;41.890;23.446;2022-12-29T07:30:36;92830.47;;;-1.45;73.34
39455;BME280;25155;41.890;23.446;2022-12-29T07:33:05;92834.84;;;-1.46;73.53
39455;BME280;25155;41.890;23.446;2022-12-29T07:35:33;92837.22;;;-1.44;73.71
39455;BME280;25155;41.890;23.446;2022-12-29T07:38:01;92833.66;;;-1.43;73.51
39455;BME280;25155;41.890;23.446;2022-12-29T07:40:28;92833.91;;;-1.38;73.79
39455;BME280;25155;41.890;23.446;2022-12-29T07:42:55;92832.38;;;-1.32;73.31
39455;BME280;25155;41.890;23.446;2022-12-29T07:45:23;92831.81;;;-1.28;73.17
39455;BME280;25155;41.890;23.446;2022-12-29T07:47:50;92835.25;;;-1.42;73.86
39455;BME280;25155;41.890;23.446;2022-12-29T07:50:19;92830.44;;;-1.52;74.73
39455;BME280;25155;41.890;23.446;2022-12-29T07:52:46;92844.19;;;-1.60;75.94
39455;BME280;25155;41.890;23.446;2022-12-29T07:55:13;92842.56;;;-1.67;76.40
39455;BME280;25155;41.890;23.446;2022-12-29T07:57:41;92839.13;;;-1.75;76.36
39455;BME280;25155;41.890;23.446;2022-12-29T08:00:09;92834.16;;;-1.76;76.89
39455;BME280;25155;41.890;23.446;2022-12-29T08:02:36;92837.91;;;-1.79;77.14
39455;BME280;25155;41.890;23.446;2022-12-29T08:05:05;92840.22;;;-1.84;77.77
39455;BME280;25155;41.890;23.446;2022-12-29T08:07:33;92842.44;;;-1.81;78.50
39455;BME280;25155;41.890;23.446;2022-12-29T08:10:01;92843.28;;;-1.74;78.49
39455;BME280;25155;41.890;23.446;2022-12-29T08:12:28;92832.53;;;-1.62;78.54
39455;BME280;25155;41.890;23.446;2022-12-29T08:14:56;92836.72;;;-1.55;79.07
39455;BME280;25155;41.890;23.446;2022-12-29T08:17:23;92838.75;;;-1.50;79.24
39455;BME280;25155;41.890;23.446;2022-12-29T08:19:50;92845.13;;;-1.46;78.70
39455;BME280;25155;41.890;23.446;2022-12-29T08:22:18;92839.97;;;-1.46;78.88
39455;BME280;25155;41.890;23.446;2022-12-29T08:24:47;92834.09;;;-1.40;78.36
39455;BME280;25155;41.890;23.446;2022-12-29T08:27:14;92838.41;;;-1.19;78.74
39455;BME280;25155;41.890;23.446;2022-12-29T08:29:41;92836.75;;;-1.05;78.18
39455;BME280;25155;41.890;23.446;2022-12-29T08:32:09;92828.91;;;-0.90;78.49
39455;BME280;25155;41.890;23.446;2022-12-29T08:34:36;92839.34;;;-0.63;78.55
39455;BME280;25155;41.890;23.446;2022-12-29T08:37:03;92832.34;;;-0.34;78.53
39455;BME280;25155;41.890;23.446;2022-12-29T08:39:31;92829.28;;;-0.03;78.33
39455;BME280;25155;41.890;23.446;2022-12-29T08:41:59;92829.34;;;0.24;78.09
39455;BME280;25155;41.890;23.446;2022-12-29T08:44:27;92826.03;;;0.50;79.13
39455;BME280;25155;41.890;23.446;2022-12-29T08:46:54;92824.22;;;0.70;79.54
39455;BME280;25155;41.890;23.446;2022-12-29T08:49:21;92820.28;;;0.75;77.43
39455;BME280;25155;41.890;23.446;2022-12-29T08:51:49;92823.44;;;0.83;76.87
39455;BME280;25155;41.890;23.446;2022-12-29T08:54:16;92820.25;;;0.95;76.76
39455;BME280;25155;41.890;23.446;2022-12-29T08:56:45;92815.06;;;1.08;76.64
39455;BME280;25155;41.890;23.446;2022-12-29T08:59:15;92811.09;;;1.25;76.16
39455;BME280;25155;41.890;23.446;2022-12-29T09:01:42;92801.47;;;1.46;76.28
39455;BME280;25155;41.890;23.446;2022-12-29T09:04:09;92809.38;;;1.65;75.88
39455;BME280;25155;41.890;23.446;2022-12-29T09:06:37;92795.00;;;1.82;75.20
39455;BME280;25155;41.890;23.446;2022-12-29T09:09:04;92801.25;;;1.99;74.83
39455;BME280;25155;41.890;23.446;2022-12-29T09:11:31;92789.44;;;2.17;75.36
39455;BME280;25155;41.890;23.446;2022-12-29T09:13:58;92796.09;;;2.38;74.83
39455;BME280;25155;41.890;23.446;2022-12-29T09:16:27;92791.75;;;2.57;74.45
39455;BME280;25155;41.890;23.446;2022-12-29T09:18:54;92795.22;;;2.76;73.85
39455;BME280;25155;41.890;23.446;2022-12-29T09:21:22;92791.47;;;2.90;73.56
39455;BME280;25155;41.890;23.446;2022-12-29T09:23:49;92790.59;;;3.03;72.52
39455;BME280;25155;41.890;23.446;2022-12-29T09:26:16;92784.38;;;3.11;72.63
39455;BME280;25155;41.890;23.446;2022-12-29T09:28:44;92785.03;;;3.25;71.94
39455;BME280;25155;41.890;23.446;2022-12-29T09:31:11;92766.88;;;3.25;70.23
39455;BME280;25155;41.890;23.446;2022-12-29T12:48:26;92490.38;;;10.05;50.23
39455;BME280;25155;41.890;23.446;2022-12-29T12:51:02;92539.38;;;10.36;48.45
39455;BME280;25155;41.890;23.446;2022-12-29T12:53:49;92531.22;;;10.27;47.36
39455;BME280;25155;41.890;23.446;2022-12-29T12:56:41;92524.69;;;10.14;47.33
39455;BME280;25155;41.890;23.446;2022-12-29T12:59:19;92544.84;;;10.39;48.76
39455;BME280;25155;41.890;23.446;2022-12-29T13:01:57;92548.28;;;10.35;46.87
39455;BME280;25155;41.890;23.446;2022-12-29T13:04:36;92542.47;;;10.17;45.58
39455;BME280;25155;41.890;23.446;2022-12-29T13:07:15;92540.16;;;10.16;45.80
39455;BME280;25155;41.890;23.446;2022-12-29T13:09:58;92546.94;;;10.06;44.55
39455;BME280;25155;41.890;23.446;2022-12-29T13:12:34;92541.19;;;9.99;44.09
39455;BME280;25155;41.890;23.446;2022-12-29T13:15:18;92473.91;;;9.53;45.10
39455;BME280;25155;41.890;23.446;2022-12-29T13:22:59;92547.19;;;9.64;44.28
39455;BME280;25155;41.890;23.446;2022-12-29T13:25:34;92545.88;;;9.61;44.92
39455;BME280;25155;41.890;23.446;2022-12-29T13:28:09;92555.53;;;9.50;45.06
39455;BME280;25155;41.890;23.446;2022-12-29T13:30:45;92553.19;;;9.49;45.21
39455;BME280;25155;41.890;23.446;2022-12-29T13:33:20;92551.88;;;9.57;45.73
39455;BME280;25155;41.890;23.446;2022-12-29T13:35:56;92551.88;;;9.57;45.24
39455;BME280;25155;41.890;23.446;2022-12-29T13:38:34;92548.50;;;9.66;45.51
39455;BME280;25155;41.890;23.446;2022-12-29T13:41:06;92543.28;;;9.77;45.01
39455;BME280;25155;41.890;23.446;2022-12-29T13:43:37;92549.31;;;9.92;45.18
39455;BME280;25155;41.890;23.446;2022-12-29T13:46:09;92554.25;;;9.84;44.78
39455;BME280;25155;41.890;23.446;2022-12-29T13:48:43;92551.13;;;9.77;45.01
39455;BME280;25155;41.890;23.446;2022-12-29T13:51:12;92553.75;;;9.77;45.51
39455;BME280;25155;41.890;23.446;2022-12-29T13:53:54;92553.19;;;9.59;45.08
39455;BME280;25155;41.890;23.446;2022-12-29T13:56:26;92558.66;;;9.52;45.09
39455;BME280;25155;41.890;23.446;2022-12-29T13:59:04;92563.94;;;9.63;46.08
39455;BME280;25155;41.890;23.446;2022-12-29T14:01:35;92562.09;;;9.68;45.68
39455;BME280;25155;41.890;23.446;2022-12-29T14:04:12;92566.28;;;9.64;45.20
39455;BME280;25155;41.890;23.446;2022-12-29T14:06:40;92571.75;;;9.58;45.58
39455;BME280;25155;41.890;23.446;2022-12-29T14:12:22;92577.00;;;9.52;46.39
39455;BME280;25155;41.890;23.446;2022-12-29T14:15:03;92572.81;;;9.51;46.23
39455;BME280;25155;41.890;23.446;2022-12-29T14:17:31;92575.69;;;9.50;45.57
39455;BME280;25155;41.890;23.446;2022-12-29T14:19:59;92582.44;;;9.41;45.68
39455;BME280;25155;41.890;23.446;2022-12-29T14:22:27;92587.91;;;9.29;45.98
39455;BME280;25155;41.890;23.446;2022-12-29T14:24:54;92582.91;;;9.17;46.55
39455;BME280;25155;41.890;23.446;2022-12-29T14:27:44;92577.88;;;9.00;46.90
39455;BME280;25155;41.890;23.446;2022-12-29T14:30:49;92581.69;;;8.87;46.62
39455;BME280;25155;41.890;23.446;2022-12-29T14:33:16;92586.06;;;8.76;46.78
39455;BME280;25155;41.890;23.446;2022-12-29T14:35:46;92587.88;;;8.66;47.10
39455;BME280;25155;41.890;23.446;2022-12-29T14:38:21;92592.72;;;8.52;47.51
39455;BME280;25155;41.890;23.446;2022-12-29T14:40:49;92598.69;;;8.42;47.38
39455;BME280;25155;41.890;23.446;2022-12-29T14:43:26;92604.06;;;8.30;47.64
39455;BME280;25155;41.890;23.446;2022-12-29T14:45:59;92600.91;;;8.23;47.61
39455;BME280;25155;41.890;23.446;2022-12-29T14:48:37;92602.09;;;8.10;47.74
39455;BME280;25155;41.890;23.446;2022-12-29T14:51:29;92604.31;;;7.91;48.23
39455;BME280;25155;41.890;23.446;2022-12-29T14:53:57;92610.31;;;7.92;48.41
39455;BME280;25155;41.890;23.446;2022-12-29T14:56:26;92609.72;;;7.84;48.86
39455;BME280;25155;41.890;23.446;2022-12-29T14:59:00;92602.34;;;7.76;48.90
39455;BME280;25155;41.890;23.446;2022-12-29T15:01:39;92605.63;;;7.66;49.06
39455;BME280;25155;41.890;23.446;2022-12-29T15:04:17;92609.47;;;7.59;49.32
39455;BME280;25155;41.890;23.446;2022-12-29T15:06:44;92607.84;;;7.52;49.58
39455;BME280;25155;41.890;23.446;2022-12-29T15:09:22;92620.19;;;7.35;49.69
39455;BME280;25155;41.890;23.446;2022-12-29T15:11:52;92619.00;;;7.26;49.85
39455;BME280;25155;41.890;23.446;2022-12-29T15:14:34;92614.53;;;7.21;49.61
39455;BME280;25155;41.890;23.446;2022-12-29T15:17:02;92612.31;;;6.91;50.40
39455;BME280;25155;41.890;23.446;2022-12-29T15:19:36;92610.88;;;7.00;50.38
39455;BME280;25155;41.890;23.446;2022-12-29T15:22:03;92606.44;;;7.01;50.31
39455;BME280;25155;41.890;23.446;2022-12-29T15:24:32;92616.56;;;6.97;50.42
39455;BME280;25155;41.890;23.446;2022-12-29T15:30:26;92615.34;;;6.83;50.30
39455;BME280;25155;41.890;23.446;2022-12-29T15:32:54;92613.22;;;6.79;50.69
39455;BME280;25155;41.890;23.446;2022-12-29T15:35:30;92619.94;;;6.75;50.44
39455;BME280;25155;41.890;23.446;2022-12-29T15:37:58;92623.03;;;6.72;50.44
39455;BME280;25155;41.890;23.446;2022-12-29T15:40:30;92621.84;;;6.63;50.54
39455;BME280;25155;41.890;23.446;2022-12-29T15:43:09;92623.75;;;6.51;50.40
39455;BME280;25155;41.890;23.446;2022-12-29T15:45:40;92617.47;;;6.13;51.07
39455;BME280;25155;41.890;23.446;2022-12-29T15:48:14;92620.16;;;6.01;51.60
39455;BME280;25155;41.890;23.446;2022-12-29T15:50:44;92621.25;;;5.88;52.44
39455;BME280;25155;41.890;23.446;2022-12-29T15:53:12;92632.16;;;5.73;52.23
39455;BME280;25155;41.890;23.446;2022-12-29T15:55:45;92631.78;;;5.64;52.55
39455;BME280;25155;41.890;23.446;2022-12-29T15:58:20;92632.69;;;5.58;52.46
39455;BME280;25155;41.890;23.446;2022-12-29T16:00:52;92632.91;;;5.57;52.95
39455;BME280;25155;41.890;23.446;2022-12-29T16:03:20;92636.06;;;5.59;52.70
39455;BME280;25155;41.890;23.446;2022-12-29T16:05:54;92633.47;;;5.59;52.81
39455;BME280;25155;41.890;23.446;2022-12-29T16:08:27;92640.16;;;5.55;52.87
39455;BME280;25155;41.890;23.446;2022-12-29T16:10:57;92637.56;;;5.55;53.11
39455;BME280;25155;41.890;23.446;2022-12-29T16:13:28;92640.88;;;5.50;52.67
39455;BME280;25155;41.890;23.446;2022-12-29T16:16:01;92642.13;;;5.47;52.85
39455;BME280;25155;41.890;23.446;2022-12-29T16:18:32;92640.31;;;5.48;53.07
39455;BME280;25155;41.890;23.446;2022-12-29T16:21:02;92644.25;;;5.39;53.11
39455;BME280;25155;41.890;23.446;2022-12-29T16:23:30;92649.91;;;5.36;53.26
39455;BME280;25155;41.890;23.446;2022-12-29T16:25:59;92632.22;;;5.21;53.04
39455;BME280;25155;41.890;23.446;2022-12-29T16:28:35;92656.50;;;5.26;53.73
39455;BME280;25155;41.890;23.446;2022-12-29T16:31:06;92659.47;;;5.18;53.52
39455;BME280;25155;41.890;23.446;2022-12-29T16:33:39;92655.97;;;5.12;53.35
39455;BME280;25155;41.890;23.446;2022-12-29T16:36:40;92666.41;;;4.89;54.35
39455;BME280;25155;41.890;23.446;2022-12-29T16:39:23;92665.50;;;4.83;54.26
39455;BME280;25155;41.890;23.446;2022-12-29T16:41:52;92660.09;;;4.85;53.99
39455;BME280;25155;41.890;23.446;2022-12-29T16:44:22;92665.28;;;4.85;53.98
39455;BME280;25155;41.890;23.446;2022-12-29T16:47:01;92672.38;;;4.78;53.82
39455;BME280;25155;41.890;23.446;2022-12-29T16:49:30;92672.97;;;4.68;54.39